createdAt,value
2022-12-08T00:01:53.682Z,100026.52
2022-12-08T00:04:25.342Z,100029.31
2022-12-08T00:07:15.942Z,100032.02
2022-12-08T00:09:47.602Z,100030.30
2022-12-08T00:12:19.226Z,100025.14
2022-12-08T00:14:51.444Z,100024.64
2022-12-08T00:17:23.155Z,100022.25
2022-12-08T00:19:54.849Z,100021.64
2022-12-08T00:22:26.473Z,100026.07
2022-12-08T00:24:58.319Z,100025.73
2022-12-08T00:27:30.019Z,100024.88
2022-12-08T00:30:01.701Z,100027.64
2022-12-08T00:32:33.311Z,100024.80
2022-12-08T00:35:05.799Z,100026.58
2022-12-08T00:37:37.633Z,100031.22
2022-12-08T00:40:12.625Z,100033.45
2022-12-08T00:42:44.317Z,100029.05
2022-12-08T00:45:16.091Z,100027.59
2022-12-08T00:47:47.797Z,100035.89
2022-12-08T00:50:23.378Z,100035.89
2022-12-08T00:52:55.099Z,100036.31
2022-12-08T00:55:26.899Z,100032.15
2022-12-08T00:57:58.576Z,100031.02
2022-12-08T01:00:30.317Z,100032.10
2022-12-08T01:03:03.359Z,100031.56
2022-12-08T01:05:35.174Z,100038.65
2022-12-08T01:08:09.920Z,100038.80
2022-12-08T01:10:42.211Z,100045.65
2022-12-08T01:13:13.877Z,100046.61
2022-12-08T01:15:45.766Z,100048.70
2022-12-08T01:18:17.648Z,100049.65
2022-12-08T01:20:49.584Z,100055.16
2022-12-08T01:23:21.171Z,100055.92
2022-12-08T01:25:52.787Z,100056.00
2022-12-08T01:28:24.534Z,100058.17
2022-12-08T01:30:56.200Z,100062.11
2022-12-08T01:33:28.581Z,100062.41
2022-12-08T01:36:05.749Z,100060.49
2022-12-08T01:38:37.377Z,100060.14
2022-12-08T01:41:09.150Z,100059.27
2022-12-08T01:43:58.136Z,100054.90
2022-12-08T01:46:31.360Z,100059.89
2022-12-08T01:49:08.790Z,100056.60
2022-12-08T01:51:44.082Z,100056.78
2022-12-08T01:54:16.755Z,100059.27
2022-12-08T01:56:55.277Z,100062.27
2022-12-08T01:59:28.046Z,100059.60
2022-12-08T02:01:59.899Z,100060.14
2022-12-08T02:04:31.533Z,100059.76
2022-12-08T02:07:07.981Z,100062.00
2022-12-08T02:09:41.184Z,100060.80
2022-12-08T02:12:13.266Z,100063.05
2022-12-08T02:14:44.867Z,100063.33
2022-12-08T02:17:31.682Z,100065.17
2022-12-08T02:20:24.873Z,100068.82
2022-12-08T02:23:06.262Z,100069.95
2022-12-08T02:25:51.694Z,100067.28
2022-12-08T02:28:45.658Z,100061.48
2022-12-08T02:31:33.818Z,100062.36
2022-12-08T02:34:18.858Z,100063.80
2022-12-08T02:37:01.084Z,100060.18
2022-12-08T02:39:43.817Z,100056.42
2022-12-08T02:42:25.130Z,100056.44
2022-12-08T02:45:03.720Z,100055.44
2022-12-08T02:47:36.460Z,100053.83
2022-12-08T02:50:12.859Z,100052.38
2022-12-08T02:52:49.009Z,100048.46
2022-12-08T02:55:27.613Z,100049.61
2022-12-08T02:58:25.333Z,100046.77
2022-12-08T03:01:13.939Z,100044.17
2022-12-08T03:03:52.237Z,100042.75
2022-12-08T03:06:32.046Z,100035.36
2022-12-08T03:09:09.608Z,100034.55
2022-12-08T03:11:45.849Z,100030.59
2022-12-08T03:14:19.275Z,100027.41
2022-12-08T03:16:56.550Z,100027.20
2022-12-08T03:19:31.136Z,100031.52
2022-12-08T03:22:04.779Z,100032.24
2022-12-08T03:24:40.822Z,100030.30
2022-12-08T03:27:14.776Z,100029.05
2022-12-08T03:29:47.453Z,100028.59
2022-12-08T03:32:29.629Z,100024.29
2022-12-08T03:35:05.538Z,100019.02
2022-12-08T03:37:39.260Z,100015.90
2022-12-08T03:40:15.361Z,100015.49
2022-12-08T03:42:47.372Z,100013.77
2022-12-08T03:45:19.035Z,100014.83
2022-12-08T03:47:50.777Z,100014.87
2022-12-08T03:50:25.378Z,100014.33
2022-12-08T03:52:57.096Z,100009.27
2022-12-08T03:55:29.663Z,100003.44
2022-12-08T03:58:01.423Z,99999.19
2022-12-08T04:00:33.325Z,99996.25
2022-12-08T04:03:07.165Z,99996.31
2022-12-08T04:05:38.908Z,99994.33
2022-12-08T04:08:10.679Z,99993.45
2022-12-08T04:10:42.355Z,99990.25
2022-12-08T04:13:14.105Z,99989.86
2022-12-08T04:15:49.840Z,99987.52
2022-12-08T04:18:21.968Z,99992.11
2022-12-08T04:20:54.012Z,99993.14
2022-12-08T04:23:26.095Z,99988.20
2022-12-08T04:25:57.755Z,99982.58
2022-12-08T04:28:29.812Z,99983.55
2022-12-08T04:31:02.075Z,99977.89
2022-12-08T04:33:35.289Z,99977.73
2022-12-08T04:36:09.097Z,99971.85
2022-12-08T04:38:40.808Z,99966.64
2022-12-08T04:41:12.537Z,99966.04
2022-12-08T04:43:45.002Z,99972.48
2022-12-08T04:46:16.783Z,99970.27
2022-12-08T04:48:48.873Z,99966.42
2022-12-08T04:51:21.642Z,99962.00
2022-12-08T04:53:53.359Z,99963.45
2022-12-08T04:56:25.347Z,99961.73
2022-12-08T04:58:57.316Z,99961.95
2022-12-08T05:01:29.034Z,99957.15
2022-12-08T05:04:00.929Z,99962.43
2022-12-08T05:06:32.652Z,99964.27
2022-12-08T05:09:04.591Z,99961.33
2022-12-08T05:11:36.179Z,99954.47
2022-12-08T05:14:09.794Z,99952.46
2022-12-08T05:16:41.431Z,99954.19
2022-12-08T05:19:13.306Z,99952.35
2022-12-08T05:21:45.844Z,99951.89
2022-12-08T05:24:17.439Z,99952.04
2022-12-08T05:26:50.610Z,99948.17
2022-12-08T05:29:22.369Z,99952.04
2022-12-08T05:31:54.390Z,99948.14
2022-12-08T05:34:26.376Z,99948.23
2022-12-08T05:36:58.006Z,99942.35
2022-12-08T05:39:29.785Z,99939.52
2022-12-08T05:42:01.466Z,99938.58
2022-12-08T05:44:33.231Z,99935.21
2022-12-08T05:47:05.146Z,99936.90
2022-12-08T05:49:36.922Z,99932.87
2022-12-08T05:52:08.951Z,99937.52
2022-12-08T05:54:40.880Z,99934.73
2022-12-08T05:57:12.870Z,99937.87
2022-12-08T05:59:44.881Z,99938.77
2022-12-08T06:02:16.743Z,99933.00
2022-12-08T06:04:48.576Z,99929.85
2022-12-08T06:07:20.507Z,99930.52
2022-12-08T06:09:52.230Z,99930.42
2022-12-08T06:12:24.373Z,99928.35
2022-12-08T06:14:56.114Z,99922.85
2022-12-08T06:17:27.726Z,99922.44
2022-12-08T06:19:59.491Z,99921.45
2022-12-08T06:22:31.445Z,99923.09
2022-12-08T06:25:07.216Z,99917.36
2022-12-08T06:27:41.496Z,99919.48
2022-12-08T06:30:26.444Z,99918.41
2022-12-08T06:32:58.138Z,99919.75
2022-12-08T06:35:29.834Z,99918.06
2022-12-08T06:38:01.468Z,99914.36
2022-12-08T06:40:33.072Z,99916.96
2022-12-08T06:43:04.822Z,99919.46
2022-12-08T06:45:36.756Z,99913.90
2022-12-08T06:48:09.089Z,99915.45
2022-12-08T06:50:40.743Z,99915.66
2022-12-08T06:53:14.036Z,99916.27
2022-12-08T06:56:03.576Z,99916.96
2022-12-08T06:58:35.685Z,99915.83
2022-12-08T07:01:12.484Z,99915.67
2022-12-08T07:03:44.701Z,99915.11
2022-12-08T07:06:21.564Z,99916.69
2022-12-08T07:08:53.278Z,99914.81
2022-12-08T07:11:25.037Z,99916.27
2022-12-08T07:13:58.228Z,99912.75
2022-12-08T07:16:30.452Z,99914.64
2022-12-08T07:19:02.197Z,99917.27
2022-12-08T07:21:34.273Z,99919.77
2022-12-08T07:24:06.556Z,99923.89
2022-12-08T07:26:41.144Z,99921.84
2022-12-08T07:29:13.678Z,99925.23
2022-12-08T07:31:45.346Z,99925.23
2022-12-08T07:34:17.043Z,99922.77
2022-12-08T07:36:48.883Z,99922.67
2022-12-08T07:39:20.498Z,99919.83
2022-12-08T07:41:52.165Z,99920.04
2022-12-08T07:44:23.837Z,99915.40
2022-12-08T07:46:55.952Z,99914.38
2022-12-08T07:49:27.848Z,99915.41
2022-12-08T07:51:59.831Z,99916.45
2022-12-08T07:54:31.726Z,99915.04
2022-12-08T07:57:03.890Z,99918.03
2022-12-08T07:59:35.541Z,99917.27
2022-12-08T08:02:23.448Z,99918.14
2022-12-08T08:04:55.807Z,99917.13
2022-12-08T08:07:27.581Z,99918.05
2022-12-08T08:09:59.245Z,99913.58
2022-12-08T08:12:32.336Z,99910.74
2022-12-08T08:15:05.797Z,99908.59
2022-12-08T08:17:38.421Z,99912.29
2022-12-08T08:20:13.486Z,99915.59
2022-12-08T08:22:46.253Z,99917.23
2022-12-08T08:25:19.147Z,99913.59
2022-12-08T08:27:51.077Z,99912.36
2022-12-08T08:30:29.475Z,99910.05
2022-12-08T08:33:01.355Z,99910.70
2022-12-08T08:35:32.975Z,99903.96
2022-12-08T08:38:04.840Z,99904.16
2022-12-08T08:40:36.649Z,99907.79
2022-12-08T08:43:09.074Z,99911.72
2022-12-08T08:45:40.747Z,99910.98
2022-12-08T08:48:12.477Z,99911.47
2022-12-08T08:50:44.408Z,99912.23
2022-12-08T08:53:16.240Z,99917.43
2022-12-08T08:55:50.314Z,99907.90
2022-12-08T08:58:22.088Z,99910.67
2022-12-08T09:00:53.756Z,99911.05
2022-12-08T09:03:25.464Z,99909.21
2022-12-08T09:05:57.869Z,99914.28
2022-12-08T09:08:29.851Z,99913.56
2022-12-08T09:11:01.851Z,99912.02
2022-12-08T09:13:33.603Z,99912.24
2022-12-08T09:16:07.477Z,99912.81
2022-12-08T09:18:39.191Z,99921.42
2022-12-08T09:21:16.560Z,99919.58
2022-12-08T09:23:48.376Z,99919.36
2022-12-08T09:26:22.520Z,99919.97
2022-12-08T09:28:55.977Z,99916.38
2022-12-08T09:31:28.122Z,99912.41
2022-12-08T09:34:00.459Z,99912.25
2022-12-08T09:36:32.382Z,99910.41
2022-12-08T09:39:04.333Z,99910.41
2022-12-08T09:41:44.838Z,99900.84
2022-12-08T09:44:39.252Z,99904.50
2022-12-08T09:47:19.627Z,99901.50
2022-12-08T09:49:59.552Z,99899.98
2022-12-08T09:52:34.680Z,99897.83
2022-12-08T09:55:16.664Z,99894.63
2022-12-08T09:57:58.626Z,99893.08
2022-12-08T10:00:30.471Z,99891.75
2022-12-08T10:03:02.135Z,99886.66
2022-12-08T10:05:38.818Z,99887.87
2022-12-08T10:08:17.783Z,99884.45
2022-12-08T10:10:57.131Z,99886.38
2022-12-08T10:14:10.024Z,99884.91
2022-12-08T10:16:53.546Z,99883.81
2022-12-08T10:19:28.076Z,99884.10
2022-12-08T10:22:00.448Z,99883.75
2022-12-08T10:24:42.455Z,99884.28
2022-12-08T10:27:14.781Z,99880.80
2022-12-08T10:29:46.368Z,99878.73
2022-12-08T10:32:21.434Z,99877.48
2022-12-08T10:35:04.457Z,99877.09
2022-12-08T10:37:36.250Z,99877.14
2022-12-08T10:40:14.050Z,99876.39
2022-12-08T10:42:48.867Z,99875.01
2022-12-08T10:45:29.273Z,99872.41
2022-12-08T10:48:04.494Z,99873.89
2022-12-08T10:50:42.541Z,99867.80
2022-12-08T10:53:21.844Z,99867.45
2022-12-08T10:55:55.085Z,99865.17
2022-12-08T10:58:36.453Z,99863.52
2022-12-08T11:01:14.119Z,99857.86
2022-12-08T11:03:50.924Z,99851.60
2022-12-08T11:06:26.951Z,99852.08
2022-12-08T11:09:02.053Z,99852.43
2022-12-08T11:11:47.069Z,99852.04
2022-12-08T11:14:23.801Z,99853.50
2022-12-08T11:16:59.013Z,99851.93
2022-12-08T11:19:30.722Z,99846.57
2022-12-08T11:22:02.339Z,99845.29
2022-12-08T11:24:38.666Z,99847.11
2022-12-08T11:27:11.238Z,99841.30
2022-12-08T11:29:43.729Z,99839.11
2022-12-08T11:32:16.080Z,99841.88
2022-12-08T11:34:52.044Z,99842.98
2022-12-08T11:37:34.769Z,99840.62
2022-12-08T11:40:21.832Z,99837.88
2022-12-08T11:43:02.089Z,99838.68
2022-12-08T11:45:36.472Z,99831.61
2022-12-08T11:48:17.020Z,99825.70
2022-12-08T11:50:54.186Z,99817.33
2022-12-08T11:53:31.458Z,99815.79
2022-12-08T11:56:08.056Z,99815.75
2022-12-08T11:58:43.331Z,99812.52
2022-12-08T12:01:21.368Z,99808.71
2022-12-08T12:04:00.717Z,99808.40
2022-12-08T12:07:09.825Z,99810.06
2022-12-08T12:09:58.713Z,99804.51
2022-12-08T12:12:44.717Z,99801.73
2022-12-08T12:15:57.273Z,99800.64
2022-12-08T12:18:34.455Z,99808.33
2022-12-08T12:21:33.925Z,99809.45
2022-12-08T12:24:25.441Z,99808.31
2022-12-08T12:27:01.776Z,99808.11
2022-12-08T12:29:36.857Z,99808.38
2022-12-08T12:32:11.534Z,99807.09
2022-12-08T12:34:51.078Z,99802.81
2022-12-08T12:37:26.281Z,99803.48
2022-12-08T12:40:02.171Z,99804.58
2022-12-08T12:42:43.037Z,99803.90
2022-12-08T12:45:27.202Z,99801.45
2022-12-08T12:48:20.849Z,99802.67
2022-12-08T12:50:55.251Z,99802.95
2022-12-08T12:53:52.194Z,99799.97
2022-12-08T12:56:50.310Z,99792.91
2022-12-08T12:59:51.662Z,99787.94
2022-12-08T13:02:28.712Z,99780.72
2022-12-08T13:05:11.271Z,99781.02
2022-12-08T13:07:51.062Z,99780.59
2022-12-08T13:10:28.215Z,99777.46
2022-12-08T13:13:17.457Z,99779.87
2022-12-08T13:15:54.965Z,99781.58
2022-12-08T13:18:35.247Z,99782.64
2022-12-08T13:21:15.174Z,99778.39
2022-12-08T13:23:49.103Z,99773.40
2022-12-08T13:26:23.679Z,99778.92
2022-12-08T13:29:24.950Z,99779.05
2022-12-08T13:31:57.275Z,99779.61
2022-12-08T13:34:36.901Z,99777.70
2022-12-08T13:37:26.366Z,99775.05
2022-12-08T13:40:03.772Z,99772.70
2022-12-08T13:42:47.057Z,99771.25
2022-12-08T13:48:42.301Z,99770.42
2022-12-08T13:55:06.813Z,99771.92
2022-12-08T13:57:19.709Z,99772.96
2022-12-08T13:59:51.831Z,99778.40
2022-12-08T14:02:32.974Z,99780.02
2022-12-08T14:05:34.589Z,99776.80
2022-12-08T14:07:58.753Z,99773.65
2022-12-08T14:10:33.400Z,99771.61
2022-12-08T14:13:15.726Z,99772.58
2022-12-08T14:15:47.424Z,99771.41
2022-12-08T14:18:30.806Z,99770.54
2022-12-08T14:21:21.803Z,99769.80
2022-12-08T14:23:53.651Z,99768.98
2022-12-08T14:26:25.483Z,99778.73
2022-12-08T14:28:57.555Z,99778.19
2022-12-08T14:31:30.152Z,99780.15
2022-12-08T14:34:02.010Z,99778.79
2022-12-08T14:36:34.145Z,99780.91
2022-12-08T14:39:06.192Z,99776.74
2022-12-08T14:41:39.334Z,99773.38
2022-12-08T14:44:25.214Z,99775.68
2022-12-08T14:47:11.584Z,99776.93
2022-12-08T14:49:44.587Z,99778.98
2022-12-08T14:52:16.785Z,99778.15
2022-12-08T14:54:51.156Z,99782.86
2022-12-08T14:57:23.447Z,99781.52
2022-12-08T14:59:55.180Z,99784.44
2022-12-08T15:02:32.871Z,99782.87
2022-12-08T15:05:11.397Z,99779.86
2022-12-08T15:07:50.630Z,99777.95
2022-12-08T15:10:26.845Z,99773.36
2022-12-08T15:13:20.675Z,99775.56
2022-12-08T15:15:53.962Z,99777.05
2022-12-08T15:18:36.422Z,99773.97
2022-12-08T15:21:12.671Z,99775.33
2022-12-08T15:23:47.204Z,99774.28
2022-12-08T15:26:23.305Z,99770.92
2022-12-08T15:28:56.007Z,99767.60
2022-12-08T15:31:27.762Z,99765.33
2022-12-08T15:33:59.635Z,99764.03
2022-12-08T15:36:31.641Z,99760.21
2022-12-08T15:39:03.482Z,99760.59
2022-12-08T15:41:35.188Z,99757.05
2022-12-08T15:44:06.856Z,99756.67
2022-12-08T15:46:38.505Z,99758.35
2022-12-08T15:49:17.243Z,99758.80
2022-12-08T15:51:49.114Z,99761.55
2022-12-08T15:54:21.072Z,99760.38
2022-12-08T15:57:18.578Z,99759.17
2022-12-08T15:59:47.852Z,99759.00
2022-12-08T16:02:22.816Z,99760.22
2022-12-08T16:07:47.794Z,99761.55
2022-12-08T16:10:26.486Z,99760.91
2022-12-08T16:16:17.896Z,99758.69
2022-12-08T16:18:51.088Z,99755.70
2022-12-08T16:21:53.345Z,99755.76
2022-12-08T16:24:14.923Z,99753.70
2022-12-08T16:27:58.796Z,99757.27
2022-12-08T16:29:38.769Z,99756.66
2022-12-08T16:32:10.450Z,99753.97
2022-12-08T16:34:42.375Z,99755.17
2022-12-08T16:37:17.058Z,99753.88
2022-12-08T16:39:50.271Z,99755.55
2022-12-08T16:42:44.495Z,99753.73
2022-12-08T16:45:17.858Z,99760.20
2022-12-08T16:47:51.057Z,99763.66
2022-12-08T16:50:26.947Z,99762.17
2022-12-08T16:53:00.907Z,99764.86
2022-12-08T16:55:33.020Z,99760.38
2022-12-08T16:58:04.848Z,99763.43
2022-12-08T17:00:45.061Z,99763.41
2022-12-08T17:03:18.547Z,99763.42
2022-12-08T17:05:50.232Z,99767.98
2022-12-08T17:08:22.288Z,99770.88
2022-12-08T17:11:07.474Z,99775.20
2022-12-08T17:13:41.383Z,99779.08
2022-12-08T17:16:16.901Z,99783.70
2022-12-08T17:18:49.162Z,99782.34
2022-12-08T17:21:21.284Z,99781.23
2022-12-08T17:23:52.945Z,99781.79
2022-12-08T17:26:24.611Z,99775.91
2022-12-08T17:29:00.871Z,99782.32
2022-12-08T17:31:33.643Z,99784.20
2022-12-08T17:34:09.650Z,99784.00
2022-12-08T17:36:41.374Z,99783.71
2022-12-08T17:39:18.264Z,99784.98
2022-12-08T17:41:50.767Z,99787.79
2022-12-08T17:44:22.635Z,99787.14
2022-12-08T17:46:54.371Z,99789.00
2022-12-08T17:49:29.640Z,99793.73
2022-12-08T17:52:03.114Z,99792.89
2022-12-08T17:54:36.477Z,99796.92
2022-12-08T17:57:08.241Z,99802.57
2022-12-08T17:59:39.942Z,99805.82
2022-12-08T18:02:13.447Z,99810.54
2022-12-08T18:04:45.100Z,99808.80
2022-12-08T18:07:16.730Z,99809.27
2022-12-08T18:09:48.531Z,99808.67
2022-12-08T18:12:23.563Z,99809.58
2022-12-08T18:14:55.738Z,99808.98
2022-12-08T18:17:27.399Z,99806.58
2022-12-08T18:19:59.002Z,99809.92
2022-12-08T18:22:30.713Z,99813.59
2022-12-08T18:25:02.512Z,99813.67
2022-12-08T18:27:38.567Z,99808.52
2022-12-08T18:30:19.284Z,99812.40
2022-12-08T18:32:55.846Z,99817.70
2022-12-08T18:35:29.046Z,99820.77
2022-12-08T18:38:01.249Z,99821.64
2022-12-08T18:40:33.201Z,99824.56
2022-12-08T18:43:05.070Z,99824.95
2022-12-08T18:45:39.708Z,99824.05
2022-12-08T18:48:11.435Z,99826.89
2022-12-08T18:50:44.873Z,99819.77
2022-12-08T18:53:16.605Z,99820.48
2022-12-08T18:55:50.996Z,99823.00
2022-12-08T18:58:22.618Z,99821.25
2022-12-08T19:00:54.335Z,99820.02
2022-12-08T19:03:26.009Z,99825.17
2022-12-08T19:06:06.274Z,99828.30
2022-12-08T19:08:37.942Z,99827.03
2022-12-08T19:11:20.170Z,99828.92
2022-12-08T19:13:52.051Z,99830.86
2022-12-08T19:16:24.219Z,99833.90
2022-12-08T19:18:55.891Z,99839.14
2022-12-08T19:21:28.604Z,99837.95
2022-12-08T19:24:00.490Z,99840.33
2022-12-08T19:26:32.101Z,99841.04
2022-12-08T19:29:03.835Z,99841.19
2022-12-08T19:31:35.641Z,99840.66
2022-12-08T19:34:09.299Z,99842.97
2022-12-08T19:36:42.756Z,99847.46
2022-12-08T19:39:36.053Z,99846.26
2022-12-08T19:42:30.692Z,99845.38
2022-12-08T19:45:05.790Z,99847.31
2022-12-08T19:47:37.488Z,99849.30
2022-12-08T19:50:29.368Z,99848.52
2022-12-08T19:53:01.208Z,99850.23
2022-12-08T19:55:33.103Z,99852.19
2022-12-08T19:58:05.479Z,99850.94
2022-12-08T20:00:39.024Z,99850.59
2022-12-08T20:03:11.880Z,99849.84
2022-12-08T20:05:44.449Z,99851.98
2022-12-08T20:08:16.484Z,99853.27
2022-12-08T20:10:48.559Z,99855.23
2022-12-08T20:13:34.072Z,99856.33
2022-12-08T20:16:05.987Z,99859.73
2022-12-08T20:18:39.006Z,99855.17
2022-12-08T20:21:11.989Z,99861.86
2022-12-08T20:23:45.531Z,99865.61
2022-12-08T20:26:18.526Z,99865.23
2022-12-08T20:28:50.459Z,99863.88
2022-12-08T20:31:24.573Z,99861.96
2022-12-08T20:33:56.659Z,99860.65
2022-12-08T20:36:28.443Z,99860.27
2022-12-08T20:39:00.053Z,99865.27
2022-12-08T20:41:36.139Z,99867.21
2022-12-08T20:44:10.968Z,99867.67
2022-12-08T20:46:47.757Z,99872.09
2022-12-08T20:49:21.188Z,99875.14
2022-12-08T20:51:53.172Z,99872.15
2022-12-08T20:54:24.914Z,99880.61
2022-12-08T20:56:56.684Z,99884.44
2022-12-08T20:59:28.664Z,99883.70
2022-12-08T21:02:01.267Z,99880.30
2022-12-08T21:04:33.001Z,99881.73
2022-12-08T21:07:05.182Z,99879.66
2022-12-08T21:09:36.993Z,99883.36
2022-12-08T21:12:09.414Z,99882.16
2022-12-08T21:14:42.674Z,99884.10
2022-12-08T21:17:14.593Z,99884.23
2022-12-08T21:19:46.256Z,99881.38
2022-12-08T21:22:18.107Z,99884.12
2022-12-08T21:24:50.423Z,99878.76
2022-12-08T21:27:22.231Z,99873.99
2022-12-08T21:29:53.878Z,99875.23
2022-12-08T21:32:30.090Z,99882.04
2022-12-08T21:35:02.654Z,99879.20
2022-12-08T21:37:34.478Z,99885.70
2022-12-08T21:40:18.301Z,99883.02
2022-12-08T21:42:50.868Z,99886.64
2022-12-08T21:45:23.597Z,99886.48
2022-12-08T21:47:55.414Z,99888.54
2022-12-08T21:50:27.608Z,99886.66
2022-12-08T21:52:59.519Z,99885.20
2022-12-08T21:55:31.468Z,99881.63
2022-12-08T21:58:03.345Z,99882.83
2022-12-08T22:00:35.210Z,99886.58
2022-12-08T22:03:07.827Z,99887.05
2022-12-08T22:05:39.589Z,99889.96
2022-12-08T22:08:11.661Z,99885.67
2022-12-08T22:10:47.387Z,99889.58
2022-12-08T22:13:19.239Z,99895.14
2022-12-08T22:15:59.998Z,99902.30
2022-12-08T22:18:32.382Z,99903.66
2022-12-08T22:21:08.383Z,99899.07
2022-12-08T22:23:40.685Z,99901.44
2022-12-08T22:26:13.194Z,99904.74
2022-12-08T22:28:46.080Z,99905.84
2022-12-08T22:31:21.023Z,99906.67
2022-12-08T22:33:53.254Z,99904.15
2022-12-08T22:36:26.927Z,99908.34
2022-12-08T22:38:58.920Z,99908.95
2022-12-08T22:41:30.608Z,99911.73
2022-12-08T22:44:02.334Z,99910.54
2022-12-08T22:46:34.397Z,99923.04
2022-12-08T22:49:06.403Z,99927.73
2022-12-08T22:51:39.474Z,99928.64
2022-12-08T22:54:12.841Z,99927.67
2022-12-08T22:56:44.528Z,99922.53
2022-12-08T22:59:16.199Z,99922.73
2022-12-08T23:01:47.914Z,99921.76
2022-12-08T23:04:19.608Z,99922.98
2022-12-08T23:06:51.364Z,99920.05
2022-12-08T23:09:23.996Z,99925.92
2022-12-08T23:11:55.931Z,99924.21
2022-12-08T23:14:27.701Z,99923.94
2022-12-08T23:16:59.694Z,99926.89
2022-12-08T23:19:31.434Z,99926.80
2022-12-08T23:22:03.211Z,99929.41
2022-12-08T23:24:35.321Z,99925.52
2022-12-08T23:27:07.030Z,99921.34
2022-12-08T23:29:39.816Z,99924.71
2022-12-08T23:32:11.721Z,99919.89
2022-12-08T23:34:43.552Z,99916.19
2022-12-08T23:37:15.406Z,99916.13
2022-12-08T23:39:47.456Z,99918.39
2022-12-08T23:42:19.145Z,99919.02
2022-12-08T23:44:50.905Z,99911.27
2022-12-08T23:47:22.693Z,99915.24
2022-12-08T23:49:54.435Z,99920.94
2022-12-08T23:52:26.111Z,99923.33
2022-12-08T23:54:57.767Z,99924.33
2022-12-08T23:57:29.357Z,99923.61
